Bydgoszcz, Poland
Current Conditions -  °F | °C
As of 5:00 AM on Wednesday 22 Oct 2014 (Local Time) from EPBY Reporting Station
Haze Haze  
Wind Chill: 52°   Ceiling: 300
Heat Index: 52°   Visibility: 2.1mi
Dew Point: 50°   Wind: 2mph
Humidity: 94%   Direction: NA
Pressure: 29.5"   Gusts: NA
Location:  53.12°N, 17.99°E
Report Text: EPBY 220300Z VRB02KT 3500 BR BKN003 11/10 Q0999
Loading
Personal Weather Stations






























Interactive Weather Map
Tropical Storm Tracking
New forecast layout! Learn more

10-Day Weather Forecast

Advertisements
Track Severe Weather on mobile